Time;durP1;ratioP1;P1;durP2;ratioP2;P2;SDS_P1;SDS_P2;PMS_P1;PMS_P2;Temp;Humidity;BMP_temperature;BMP_pressure;BME280_temperature;BME280_humidity;BME280_pressure;Samples;Min_cycle;Max_cycle;Signal;HPM_P1;HPM_P2
2022/09/22 00:01:35;;;;;;;14.40;2.65;;;20.40;90.00;;;;;;5063652;28;20483;-56
2022/09/22 00:04:06;;;;;;;13.68;2.67;;;20.40;89.90;;;;;;5068721;28;20368;-55
2022/09/22 00:06:38;;;;;;;15.53;2.70;;;20.40;89.40;;;;;;5070553;28;20047;-55
2022/09/22 00:09:10;;;;;;;15.98;2.78;;;20.40;89.80;;;;;;5070725;28;20081;-56
2022/09/22 00:11:48;;;;;;;13.23;2.78;;;20.50;89.10;;;;;;5054008;28;20017;-55
2022/09/22 00:14:21;;;;;;;9.13;2.13;;;20.40;88.10;;;;;;5047997;28;20033;-55
2022/09/22 00:16:56;;;;;;;12.13;3.13;;;20.40;88.00;;;;;;5050286;28;20025;-56
2022/09/22 00:19:26;;;;;;;15.18;2.95;;;20.40;88.40;;;;;;5049231;28;20033;-55
2022/09/22 00:21:54;;;;;;;16.17;2.28;;;20.40;88.90;;;;;;5057593;28;20146;-56
2022/09/22 00:24:24;;;;;;;16.05;2.90;;;20.40;89.10;;;;;;5064379;28;20036;-58
2022/09/22 00:26:56;;;;;;;19.45;3.05;;;20.40;89.50;;;;;;5068452;28;20036;-56
2022/09/22 00:29:26;;;;;;;15.00;3.95;;;20.40;90.30;;;;;;5067245;28;20055;-55
2022/09/22 00:31:55;;;;;;;19.50;4.68;;;20.40;90.30;;;;;;5054986;28;20132;-55
2022/09/22 00:34:25;;;;;;;19.77;5.05;;;20.40;90.20;;;;;;5055530;28;20487;-55
2022/09/22 00:36:55;;;;;;;27.50;10.00;;;20.40;90.30;;;;;;5050059;28;20111;-54
2022/09/22 00:39:23;;;;;;;28.45;11.13;;;20.50;90.40;;;;;;5053401;28;20041;-54
2022/09/22 00:41:53;;;;;;;28.15;10.27;;;20.50;90.30;;;;;;5048328;28;20029;-53
2022/09/22 00:44:33;;;;;;;34.58;11.25;;;20.50;90.20;;;;;;5055693;28;20448;-54
2022/09/22 00:47:20;;;;;;;28.30;10.07;;;20.50;90.30;;;;;;5049427;28;20051;-54
2022/09/22 00:49:50;;;;;;;27.50;9.88;;;20.50;90.40;;;;;;5048016;28;20036;-54
2022/09/22 00:52:28;;;;;;;25.08;7.97;;;20.50;90.30;;;;;;5055397;28;20028;-55
2022/09/22 00:55:01;;;;;;;23.23;7.30;;;20.50;90.20;;;;;;5063617;28;20052;-54
2022/09/22 00:57:33;;;;;;;23.60;7.20;;;20.50;90.20;;;;;;5050826;28;20035;-55
2022/09/22 01:00:04;;;;;;;25.95;8.27;;;20.50;90.20;;;;;;5048028;28;20028;-55
2022/09/22 01:02:33;;;;;;;21.42;6.93;;;20.50;90.20;;;;;;5050656;28;20120;-56
2022/09/22 01:05:01;;;;;;;24.70;6.85;;;20.50;90.10;;;;;;5047856;28;20025;-56
2022/09/22 01:07:30;;;;;;;22.23;5.80;;;20.50;90.00;;;;;;5049180;28;20036;-55
2022/09/22 01:09:59;;;;;;;21.95;5.80;;;20.50;89.60;;;;;;5049377;28;20020;-56
2022/09/22 01:12:29;;;;;;;16.27;4.55;;;20.50;88.70;;;;;;5048696;28;20048;-61
2022/09/22 01:15:15;;;;;;;17.52;4.72;;;20.50;88.50;;;;;;5057080;28;20029;-57
2022/09/22 01:18:13;;;;;;;19.73;4.72;;;20.60;87.90;;;;;;5059910;28;20402;-57
2022/09/22 01:21:09;;;;;;;19.70;4.93;;;20.50;87.70;;;;;;5064090;28;20049;-58
2022/09/22 01:23:51;;;;;;;18.08;5.05;;;20.50;87.70;;;;;;5049615;28;20075;-57
2022/09/22 01:26:55;;;;;;;19.67;3.80;;;20.50;87.80;;;;;;5069556;28;20028;-57
2022/09/22 01:29:42;;;;;;;14.73;3.60;;;20.50;87.60;;;;;;5058257;28;20098;-56
2022/09/22 01:32:34;;;;;;;13.73;3.38;;;20.40;87.00;;;;;;5079864;28;20054;-57
2022/09/22 01:35:13;;;;;;;12.77;3.50;;;20.50;86.90;;;;;;5074081;28;20024;-56
2022/09/22 01:37:49;;;;;;;14.25;2.88;;;20.40;86.40;;;;;;5070375;28;20036;-58
2022/09/22 01:40:31;;;;;;;19.35;4.10;;;20.40;86.60;;;;;;5071654;28;20299;-56
2022/09/22 01:43:21;;;;;;;15.13;2.88;;;20.50;87.00;;;;;;5065068;28;20021;-57
2022/09/22 01:45:51;;;;;;;13.07;2.70;;;20.50;87.00;;;;;;5053346;28;20094;-57
2022/09/22 01:48:32;;;;;;;13.07;3.13;;;20.40;87.00;;;;;;5034720;28;20317;-56
2022/09/22 01:51:30;;;;;;;13.80;3.72;;;20.40;86.80;;;;;;5053241;28;20026;-57
2022/09/22 01:54:07;;;;;;;12.75;3.17;;;20.40;86.80;;;;;;5051628;28;20040;-58
2022/09/22 01:56:38;;;;;;;16.88;3.28;;;20.30;86.70;;;;;;5051811;28;20025;-57
2022/09/22 01:59:08;;;;;;;14.40;2.75;;;20.30;86.90;;;;;;5050967;28;20142;-58
2022/09/22 02:01:41;;;;;;;15.75;2.75;;;20.40;86.80;;;;;;5084883;28;20025;-57
2022/09/22 02:04:25;;;;;;;11.50;2.50;;;20.30;86.60;;;;;;5052819;28;20029;-57
2022/09/22 02:07:07;;;;;;;11.88;2.63;;;20.30;86.20;;;;;;5053088;28;20052;-57
2022/09/22 02:09:38;;;;;;;12.68;3.45;;;20.30;86.80;;;;;;5051441;28;20025;-57
2022/09/22 02:12:06;;;;;;;11.13;2.25;;;20.30;86.10;;;;;;5054631;28;20031;-57
2022/09/22 02:14:34;;;;;;;9.85;2.40;;;20.30;86.50;;;;;;5054128;28;20352;-57
2022/09/22 02:17:03;;;;;;;8.52;2.20;;;20.30;85.00;;;;;;5070790;28;20036;-57
2022/09/22 02:19:38;;;;;;;9.30;2.20;;;20.30;84.00;;;;;;5054094;28;20245;-58
2022/09/22 02:22:09;;;;;;;7.35;1.90;;;20.30;83.90;;;;;;5070610;28;20380;-57
2022/09/22 02:24:41;;;;;;;9.50;2.05;;;20.20;82.50;;;;;;5063854;28;20028;-58
2022/09/22 02:27:25;;;;;;;9.40;1.95;;;20.20;82.20;;;;;;5049963;28;20045;-57
2022/09/22 02:30:01;;;;;;;8.15;1.98;;;20.20;82.00;;;;;;5051532;28;20495;-58
2022/09/22 02:32:31;;;;;;;10.00;2.22;;;20.20;81.60;;;;;;5067099;28;20423;-56
2022/09/22 02:35:00;;;;;;;10.77;2.13;;;20.20;81.60;;;;;;5050848;28;20126;-58
2022/09/22 02:37:41;;;;;;;8.68;1.90;;;20.20;81.00;;;;;;5050500;28;20029;-58
2022/09/22 02:40:32;;;;;;;13.90;2.20;;;20.20;79.80;;;;;;5067173;28;20040;-57
2022/09/22 02:43:44;;;;;;;7.53;1.60;;;20.20;80.50;;;;;;5071030;28;20069;-57
2022/09/22 02:46:32;;;;;;;11.48;2.15;;;20.20;80.30;;;;;;5007806;28;20041;-58
2022/09/22 02:49:06;;;;;;;11.43;2.13;;;20.20;80.60;;;;;;5048812;28;20041;-57
2022/09/22 02:51:34;;;;;;;10.52;2.10;;;20.20;80.60;;;;;;5050398;28;20060;-57
2022/09/22 02:54:02;;;;;;;9.15;2.08;;;20.20;79.80;;;;;;5052486;28;20029;-57
2022/09/22 02:56:31;;;;;;;8.13;2.25;;;20.20;79.90;;;;;;5071716;28;20031;-56
2022/09/22 02:58:59;;;;;;;8.32;2.70;;;20.20;80.00;;;;;;5070720;28;20020;-57
2022/09/22 03:01:27;;;;;;;8.68;2.05;;;20.20;81.10;;;;;;5057253;28;20017;-61
2022/09/22 03:03:55;;;;;;;10.30;2.05;;;20.20;81.40;;;;;;5059673;28;20085;-58
2022/09/22 03:06:24;;;;;;;11.52;2.05;;;20.20;81.30;;;;;;5053279;28;20021;-56
2022/09/22 03:08:51;;;;;;;8.35;1.88;;;20.20;81.80;;;;;;5065441;28;20127;-55
2022/09/22 03:11:20;;;;;;;11.02;2.50;;;20.20;81.40;;;;;;5057254;28;20016;-55
2022/09/22 03:13:48;;;;;;;10.27;2.20;;;20.30;81.20;;;;;;5066080;28;20606;-55
2022/09/22 03:16:16;;;;;;;30.55;2.88;;;20.30;81.30;;;;;;5063195;28;20038;-54
2022/09/22 03:18:44;;;;;;;8.27;1.85;;;20.40;81.20;;;;;;5056981;28;20028;-54
2022/09/22 03:21:13;;;;;;;11.65;2.28;;;20.40;81.50;;;;;;5052319;28;20033;-54
2022/09/22 03:23:40;;;;;;;10.55;2.42;;;20.40;82.00;;;;;;5057855;28;20068;-55
2022/09/22 03:26:09;;;;;;;9.38;2.00;;;20.50;82.40;;;;;;5062705;28;20028;-54
2022/09/22 03:28:37;;;;;;;10.23;2.30;;;20.50;81.70;;;;;;5061922;28;20463;-54
2022/09/22 03:31:05;;;;;;;9.32;2.17;;;20.50;82.20;;;;;;5071821;28;20052;-54
2022/09/22 03:33:33;;;;;;;15.13;1.95;;;20.50;82.00;;;;;;5058083;28;20511;-54
2022/09/22 03:36:01;;;;;;;11.38;2.33;;;20.50;81.80;;;;;;5051740;28;20036;-55
2022/09/22 03:38:29;;;;;;;10.27;2.30;;;20.50;81.90;;;;;;5055982;28;20021;-55
2022/09/22 03:41:00;;;;;;;9.98;2.30;;;20.50;82.00;;;;;;5051380;28;20021;-60
2022/09/22 03:43:28;;;;;;;12.73;2.30;;;20.50;82.30;;;;;;5056707;28;20543;-56
2022/09/22 03:46:00;;;;;;;8.63;2.22;;;20.50;82.30;;;;;;5057007;28;20065;-55
2022/09/22 03:48:30;;;;;;;13.73;2.65;;;20.50;82.10;;;;;;5058872;28;20171;-56
2022/09/22 03:50:58;;;;;;;12.35;2.63;;;20.50;82.10;;;;;;5050416;28;20439;-58
2022/09/22 03:53:26;;;;;;;6.03;2.00;;;20.50;82.30;;;;;;5050672;28;20044;-55
2022/09/22 03:56:05;;;;;;;9.75;2.17;;;20.50;82.40;;;;;;5056739;28;20100;-55
2022/09/22 03:58:35;;;;;;;10.25;2.35;;;20.50;82.70;;;;;;5049439;28;20104;-55
2022/09/22 04:01:04;;;;;;;11.50;2.40;;;20.50;82.70;;;;;;5053978;28;20021;-55
2022/09/22 04:03:32;;;;;;;11.25;2.75;;;20.50;82.80;;;;;;5048198;28;20029;-55
2022/09/22 04:06:00;;;;;;;8.23;2.30;;;20.50;83.00;;;;;;5050309;28;20032;-55
2022/09/22 04:08:29;;;;;;;9.30;2.10;;;20.50;82.60;;;;;;5049965;28;20047;-56
2022/09/22 04:10:58;;;;;;;8.15;2.05;;;20.50;82.50;;;;;;5057170;28;20051;-54
2022/09/22 04:13:27;;;;;;;12.43;2.25;;;20.50;82.40;;;;;;5046551;28;20033;-55
2022/09/22 04:15:55;;;;;;;9.27;2.38;;;20.50;82.40;;;;;;5041500;28;20360;-56
2022/09/22 04:18:24;;;;;;;9.57;2.50;;;20.50;83.10;;;;;;5059993;28;20025;-55
2022/09/22 04:21:00;;;;;;;9.18;2.30;;;20.50;83.10;;;;;;5031995;28;20025;-55
2022/09/22 04:23:28;;;;;;;9.07;3.05;;;20.60;83.60;;;;;;5057271;28;20033;-56
2022/09/22 04:25:56;;;;;;;9.85;2.55;;;20.60;83.80;;;;;;5055590;28;20065;-56
2022/09/22 04:28:24;;;;;;;12.30;2.40;;;20.50;83.80;;;;;;5073515;28;20046;-57
2022/09/22 04:30:53;;;;;;;9.02;2.42;;;20.60;83.80;;;;;;5063069;28;20048;-56
2022/09/22 04:33:21;;;;;;;13.00;2.92;;;20.60;83.70;;;;;;5063778;28;20333;-56
2022/09/22 04:35:50;;;;;;;10.55;2.50;;;20.60;83.80;;;;;;5056288;28;20356;-56
2022/09/22 04:38:19;;;;;;;8.93;2.47;;;20.60;83.50;;;;;;5077539;28;20021;-56
2022/09/22 04:40:48;;;;;;;13.70;2.40;;;20.60;83.90;;;;;;5073077;28;20125;-56
2022/09/22 04:43:17;;;;;;;10.15;2.40;;;20.60;83.80;;;;;;5074774;28;20494;-55
2022/09/22 04:45:47;;;;;;;9.48;2.08;;;20.60;84.10;;;;;;5059394;28;20246;-59
2022/09/22 04:48:16;;;;;;;13.25;2.17;;;20.60;83.70;;;;;;5078250;28;20491;-56
2022/09/22 04:50:44;;;;;;;11.52;2.20;;;20.60;83.10;;;;;;5071565;28;20391;-56
2022/09/22 04:53:12;;;;;;;6.60;2.10;;;20.60;83.30;;;;;;5070260;28;20032;-56
2022/09/22 04:55:41;;;;;;;12.13;2.40;;;20.60;83.30;;;;;;5069706;28;20039;-56
2022/09/22 04:58:09;;;;;;;8.50;2.45;;;20.60;83.10;;;;;;5080293;28;20055;-57
2022/09/22 05:00:37;;;;;;;10.75;2.67;;;20.60;83.00;;;;;;5074922;28;20021;-56
2022/09/22 05:03:11;;;;;;;11.65;2.60;;;20.60;83.20;;;;;;5067328;28;20162;-56
2022/09/22 05:05:39;;;;;;;9.00;2.60;;;20.60;83.00;;;;;;5049784;28;20029;-56
2022/09/22 05:08:09;;;;;;;8.63;2.35;;;20.60;82.60;;;;;;5048907;28;20544;-56
2022/09/22 05:10:37;;;;;;;8.60;2.15;;;20.60;82.60;;;;;;5049472;28;20067;-58
2022/09/22 05:13:05;;;;;;;12.02;2.65;;;20.60;83.00;;;;;;5070346;28;20024;-57
2022/09/22 05:15:34;;;;;;;13.02;2.17;;;20.60;83.30;;;;;;5073691;28;20122;-56
2022/09/22 05:18:02;;;;;;;9.80;2.35;;;20.60;83.60;;;;;;5080062;28;20151;-57
2022/09/22 05:20:30;;;;;;;10.23;2.40;;;20.60;83.40;;;;;;5059311;28;20483;-59
2022/09/22 05:22:58;;;;;;;8.98;2.42;;;20.70;84.00;;;;;;5059660;28;20032;-59
2022/09/22 05:25:26;;;;;;;22.85;3.33;;;20.70;83.60;;;;;;5062094;28;20031;-55
2022/09/22 05:27:55;;;;;;;12.68;2.90;;;20.70;84.80;;;;;;5047552;28;20033;-57
2022/09/22 05:30:26;;;;;;;12.38;2.70;;;20.70;84.60;;;;;;5059986;28;20021;-56
2022/09/22 05:32:54;;;;;;;9.80;2.38;;;20.80;85.20;;;;;;5059918;28;20075;-56
2022/09/22 05:35:24;;;;;;;12.35;3.40;;;20.80;86.60;;;;;;5052563;28;20029;-55
2022/09/22 05:37:53;;;;;;;17.15;3.40;;;20.80;88.60;;;;;;5049164;28;20480;-57
2022/09/22 05:40:23;;;;;;;8.27;2.58;;;20.80;89.10;;;;;;5049213;28;20077;-57
2022/09/22 05:42:53;;;;;;;12.15;2.97;;;20.80;89.10;;;;;;5034884;28;20129;-55
2022/09/22 05:45:22;;;;;;;11.23;2.83;;;20.90;89.00;;;;;;5067270;28;20025;-58
2022/09/22 05:47:50;;;;;;;11.77;3.08;;;20.80;88.70;;;;;;5053265;28;20340;-56
2022/09/22 05:50:19;;;;;;;15.00;2.90;;;20.80;88.60;;;;;;5049858;28;20036;-55
2022/09/22 05:52:48;;;;;;;13.40;2.90;;;20.80;88.00;;;;;;5062989;28;20714;-56
2022/09/22 05:55:16;;;;;;;14.30;2.63;;;20.90;88.30;;;;;;5069637;28;20036;-56
2022/09/22 05:57:44;;;;;;;12.25;2.50;;;20.90;87.70;;;;;;5068954;28;20036;-56
2022/09/22 06:00:13;;;;;;;13.73;2.83;;;20.90;86.90;;;;;;5060411;28;20499;-54
2022/09/22 06:02:43;;;;;;;11.35;2.55;;;20.90;86.60;;;;;;5057287;28;20039;-54
2022/09/22 06:05:12;;;;;;;12.73;2.30;;;20.80;86.00;;;;;;5068524;28;20383;-54
2022/09/22 06:07:40;;;;;;;15.57;2.40;;;20.90;85.80;;;;;;5069530;28;20028;-55
2022/09/22 06:10:11;;;;;;;8.57;2.13;;;20.80;85.30;;;;;;5069489;28;20542;-55
2022/09/22 06:12:40;;;;;;;12.98;2.83;;;20.80;84.80;;;;;;5069179;28;20033;-55
2022/09/22 06:15:08;;;;;;;10.98;2.63;;;20.80;84.50;;;;;;5052415;28;20064;-55
2022/09/22 06:17:36;;;;;;;14.90;2.85;;;20.80;84.70;;;;;;5049488;28;20029;-55
2022/09/22 06:20:04;;;;;;;10.48;2.92;;;20.80;84.60;;;;;;5052586;28;20066;-55
2022/09/22 06:22:35;;;;;;;15.75;3.28;;;20.80;84.40;;;;;;5069706;28;20103;-53
2022/09/22 06:25:03;;;;;;;15.93;3.35;;;20.80;83.90;;;;;;5072887;28;20024;-54
2022/09/22 06:27:32;;;;;;;12.60;3.08;;;20.80;83.90;;;;;;5072968;28;20016;-54
2022/09/22 06:30:00;;;;;;;10.45;2.45;;;20.80;83.90;;;;;;5073116;28;20040;-56
2022/09/22 06:32:28;;;;;;;11.27;2.60;;;20.80;83.70;;;;;;5055028;28;20024;-54
2022/09/22 06:35:01;;;;;;;13.40;2.92;;;20.70;83.70;;;;;;5073583;28;20032;-55
2022/09/22 06:37:29;;;;;;;12.65;3.20;;;20.80;83.60;;;;;;5071934;28;20024;-53
2022/09/22 06:39:57;;;;;;;14.48;3.30;;;20.80;83.40;;;;;;5073193;28;20105;-54
2022/09/22 06:42:25;;;;;;;13.10;2.63;;;20.80;83.40;;;;;;5072904;28;20024;-54
2022/09/22 06:44:54;;;;;;;10.60;2.85;;;20.80;83.10;;;;;;5072122;28;20108;-55
2022/09/22 06:47:22;;;;;;;14.82;3.10;;;20.80;83.20;;;;;;5072587;28;20040;-55
2022/09/22 06:49:50;;;;;;;9.68;2.13;;;20.70;82.80;;;;;;5054768;28;20020;-55
2022/09/22 06:52:18;;;;;;;12.20;2.45;;;20.70;83.20;;;;;;5071386;28;20036;-55
2022/09/22 06:54:47;;;;;;;9.98;2.45;;;20.70;82.60;;;;;;5072629;28;20016;-55
2022/09/22 06:57:16;;;;;;;7.00;2.10;;;20.80;82.30;;;;;;5072190;28;20028;-55
2022/09/22 06:59:47;;;;;;;10.98;2.55;;;20.80;82.20;;;;;;5072633;28;20020;-55
2022/09/22 07:02:15;;;;;;;10.63;2.20;;;20.70;82.20;;;;;;5071054;28;20036;-54
2022/09/22 07:04:43;;;;;;;11.30;2.58;;;20.70;82.10;;;;;;5071272;28;20024;-54
2022/09/22 07:07:11;;;;;;;10.63;2.45;;;20.70;81.90;;;;;;5071079;28;20175;-54
2022/09/22 07:09:39;;;;;;;7.00;2.22;;;20.70;81.80;;;;;;5071173;28;20078;-55
2022/09/22 07:12:07;;;;;;;10.13;2.35;;;20.70;81.80;;;;;;5071933;28;20027;-55
2022/09/22 07:14:35;;;;;;;8.88;2.28;;;20.70;81.70;;;;;;5072232;28;20020;-56
2022/09/22 07:17:03;;;;;;;11.45;2.20;;;20.80;81.70;;;;;;5070502;28;20181;-55
2022/09/22 07:19:35;;;;;;;11.32;2.25;;;20.70;81.60;;;;;;5070576;28;20024;-55
2022/09/22 07:22:03;;;;;;;8.50;2.33;;;20.70;81.70;;;;;;5072220;28;20033;-55
2022/09/22 07:24:31;;;;;;;13.40;2.30;;;20.70;81.80;;;;;;5070569;28;20059;-55
2022/09/22 07:27:03;;;;;;;10.15;2.55;;;20.70;81.70;;;;;;5072015;28;20128;-55
2022/09/22 07:29:31;;;;;;;8.48;2.08;;;20.70;81.70;;;;;;5070889;28;20487;-56
2022/09/22 07:32:01;;;;;;;9.10;2.22;;;20.70;81.80;;;;;;5071953;28;20051;-55
2022/09/22 07:34:29;;;;;;;9.57;2.35;;;20.70;81.80;;;;;;5072238;28;20082;-55
2022/09/22 07:37:01;;;;;;;7.88;2.10;;;20.70;81.80;;;;;;5070584;28;20391;-55
2022/09/22 07:39:31;;;;;;;10.27;2.38;;;20.70;81.90;;;;;;5071801;28;20044;-55
2022/09/22 07:41:59;;;;;;;8.68;1.90;;;20.70;81.90;;;;;;5070653;28;20029;-55
2022/09/22 07:47:13;;;;;;;12.88;2.70;;;20.70;82.00;;;;;;5071328;28;20094;-54
2022/09/22 07:49:41;;;;;;;12.73;2.25;;;20.70;82.10;;;;;;5070449;28;20021;-54
2022/09/22 07:52:13;;;;;;;13.52;3.30;;;20.70;82.30;;;;;;5070222;28;20102;-55
2022/09/22 07:54:41;;;;;;;12.45;2.72;;;20.70;82.70;;;;;;5071631;28;20070;-54
2022/09/22 07:57:09;;;;;;;9.15;2.30;;;20.70;83.20;;;;;;5069537;28;20383;-54
2022/09/22 07:59:40;;;;;;;12.77;2.40;;;20.70;83.30;;;;;;5071667;28;20082;-54
2022/09/22 08:02:10;;;;;;;14.02;2.38;;;20.70;83.50;;;;;;5069871;28;20036;-54
2022/09/22 08:04:37;;;;;;;10.32;2.42;;;20.70;83.40;;;;;;5070067;28;20020;-54
2022/09/22 08:07:06;;;;;;;12.95;2.78;;;20.70;83.70;;;;;;5070750;28;20032;-54
2022/09/22 08:09:34;;;;;;;17.10;3.30;;;20.70;83.80;;;;;;5069973;28;20094;-54
2022/09/22 08:12:03;;;;;;;11.48;2.75;;;20.80;83.80;;;;;;5069531;28;20162;-54
2022/09/22 08:14:30;;;;;;;11.52;2.88;;;20.80;84.10;;;;;;5071067;28;20021;-53
2022/09/22 08:16:59;;;;;;;11.18;3.75;;;20.70;84.30;;;;;;5071265;28;20025;-54
2022/09/22 08:19:27;;;;;;;11.85;3.13;;;20.70;84.40;;;;;;5070516;28;20046;-55
2022/09/22 08:21:56;;;;;;;8.48;2.88;;;20.80;84.40;;;;;;5071411;28;20078;-56
2022/09/22 08:24:24;;;;;;;10.95;3.08;;;20.70;84.60;;;;;;5071074;28;20414;-54
2022/09/22 08:26:54;;;;;;;10.65;3.78;;;20.70;84.50;;;;;;5069325;28;20056;-54
2022/09/22 08:29:23;;;;;;;12.05;3.95;;;20.70;84.40;;;;;;5069136;28;20028;-54
2022/09/22 08:31:52;;;;;;;10.70;3.38;;;20.70;84.30;;;;;;5070573;28;20044;-54
2022/09/22 08:34:21;;;;;;;10.90;3.92;;;20.70;84.30;;;;;;5069200;28;20032;-55
2022/09/22 08:36:49;;;;;;;9.90;3.25;;;20.70;84.20;;;;;;5069524;28;20020;-54
2022/09/22 08:39:18;;;;;;;12.55;3.53;;;20.70;84.40;;;;;;5070386;28;20456;-55
2022/09/22 08:41:55;;;;;;;11.90;3.35;;;20.70;84.60;;;;;;5070652;28;20067;-55
2022/09/22 08:44:41;;;;;;;9.10;3.45;;;20.70;84.30;;;;;;5068824;28;20033;-55
2022/09/22 08:51:50;;;;;;;9.68;3.42;;;20.70;84.10;;;;;;5070412;28;20170;-55
2022/09/22 08:53:10;;;;;;;8.68;2.78;;;20.70;84.40;;;;;;5070500;28;20029;-54
2022/09/22 08:55:42;;;;;;;10.40;2.55;;;20.70;84.40;;;;;;5069236;28;20040;-55
2022/09/22 08:58:38;;;;;;;5.63;2.25;;;20.70;84.50;;;;;;5070442;28;20091;-55
2022/09/22 09:01:22;;;;;;;9.27;2.80;;;20.70;84.60;;;;;;5069083;28;20033;-54
2022/09/22 09:04:18;;;;;;;12.60;2.88;;;20.70;84.70;;;;;;5070475;28;20540;-55
2022/09/22 09:07:12;;;;;;;7.60;2.58;;;20.70;84.50;;;;;;5070497;28;20111;-54
2022/09/22 09:10:15;;;;;;;8.43;2.83;;;20.70;84.50;;;;;;5070459;28;20032;-55
2022/09/22 09:13:07;;;;;;;10.48;4.00;;;20.70;84.30;;;;;;5068694;28;20028;-55
2022/09/22 09:15:46;;;;;;;6.10;2.80;;;20.70;84.30;;;;;;5070341;28;20067;-55
2022/09/22 09:18:22;;;;;;;9.82;2.97;;;20.70;84.20;;;;;;5052583;28;20036;-54
2022/09/22 09:20:52;;;;;;;10.75;3.28;;;20.70;84.10;;;;;;5070359;28;20038;-55
2022/09/22 09:23:50;;;;;;;7.53;3.30;;;20.70;84.10;;;;;;5068858;28;20021;-55
2022/09/22 09:26:19;;;;;;;8.85;2.80;;;20.70;84.00;;;;;;5066659;28;20048;-55
2022/09/22 09:28:55;;;;;;;8.05;2.63;;;20.70;84.00;;;;;;5068496;28;20035;-55
2022/09/22 09:31:38;;;;;;;9.00;3.17;;;20.70;83.90;;;;;;5070213;28;20090;-55
2022/09/22 09:34:16;;;;;;;6.63;2.42;;;20.70;83.80;;;;;;5070126;28;20029;-54
2022/09/22 09:36:58;;;;;;;6.93;2.58;;;20.70;83.60;;;;;;5068643;28;20024;-55
2022/09/22 09:39:31;;;;;;;6.72;2.65;;;20.70;83.50;;;;;;5070411;28;20372;-54
2022/09/22 09:42:01;;;;;;;8.45;2.53;;;20.70;83.50;;;;;;5070286;28;20025;-55
2022/09/22 09:44:37;;;;;;;8.73;2.60;;;20.70;83.40;;;;;;5069132;28;20103;-55
2022/09/22 09:47:33;;;;;;;7.95;2.70;;;20.70;83.30;;;;;;5069656;28;20451;-54
2022/09/22 09:50:02;;;;;;;5.28;1.98;;;20.70;83.20;;;;;;5070166;28;20043;-55
2022/09/22 09:52:30;;;;;;;9.35;2.50;;;20.70;83.20;;;;;;5069961;28;20096;-55
2022/09/22 09:55:01;;;;;;;7.88;2.78;;;20.70;83.20;;;;;;5069235;28;20368;-55
2022/09/22 09:57:29;;;;;;;7.97;2.65;;;20.70;83.10;;;;;;5069454;28;20024;-57
2022/09/22 10:00:32;;;;;;;8.23;2.58;;;20.70;83.10;;;;;;5073259;28;20016;-55
2022/09/22 10:03:12;;;;;;;8.50;3.00;;;20.80;82.90;;;;;;5041891;28;20063;-55
2022/09/22 10:05:42;;;;;;;7.75;2.78;;;20.70;83.00;;;;;;5072570;28;20419;-55
2022/09/22 10:08:20;;;;;;;7.85;2.60;;;20.70;83.00;;;;;;5072082;28;20040;-54
2022/09/22 10:10:48;;;;;;;8.45;2.75;;;20.80;83.10;;;;;;5073495;28;20028;-54
2022/09/22 10:13:37;;;;;;;8.43;2.38;;;20.80;83.10;;;;;;5072651;28;20132;-55
2022/09/22 10:16:50;;;;;;;9.57;2.55;;;20.80;83.00;;;;;;5071801;28;20032;-55
2022/09/22 10:19:18;;;;;;;;;;;20.80;83.00;;;;;;5011583;28;20026;-56
2022/09/22 10:21:47;;;;;;;9.05;2.53;;;20.80;83.10;;;;;;5066698;28;20351;-54
2022/09/22 10:24:51;;;;;;;6.95;2.35;;;20.70;83.20;;;;;;5073173;28;20029;-54
2022/09/22 10:27:24;;;;;;;7.45;2.25;;;20.70;83.10;;;;;;5072681;28;20062;-54
2022/09/22 10:30:25;;;;;;;11.27;2.63;;;20.70;83.10;;;;;;5073266;28;20228;-54
2022/09/22 10:33:20;;;;;;;9.05;2.38;;;20.80;83.20;;;;;;5067762;28;20453;-55
2022/09/22 10:36:03;;;;;;;7.70;2.30;;;20.80;83.20;;;;;;5069800;28;20109;-55
2022/09/22 10:38:40;;;;;;;9.65;2.80;;;20.80;83.30;;;;;;5071215;28;20039;-56
2022/09/22 10:41:20;;;;;;;7.03;2.53;;;20.70;83.30;;;;;;5071938;28;20079;-54
2022/09/22 10:43:55;;;;;;;7.00;2.38;;;20.80;83.40;;;;;;5071237;28;20106;-55
2022/09/22 10:46:33;;;;;;;6.28;2.03;;;20.80;83.50;;;;;;5072574;28;20483;-54
2022/09/22 10:49:20;;;;;;;6.43;2.10;;;20.80;83.40;;;;;;5071426;28;20487;-54
2022/09/22 10:52:02;;;;;;;7.60;2.10;;;20.80;83.30;;;;;;5072694;28;20051;-55
2022/09/22 10:54:50;;;;;;;9.88;2.22;;;20.80;83.30;;;;;;5071426;28;20036;-56
2022/09/22 10:57:37;;;;;;;7.43;2.08;;;20.80;83.40;;;;;;5072486;28;20223;-54
2022/09/22 11:00:17;;;;;;;10.40;2.38;;;20.80;83.60;;;;;;5071099;28;20036;-54
2022/09/22 11:03:25;;;;;;;6.03;2.05;;;20.80;83.70;;;;;;5072696;28;20021;-54
2022/09/22 11:12:21;;;;;;;6.40;1.85;;;20.80;83.90;;;;;;5070304;28;20025;-55
2022/09/22 11:15:04;;;;;;;8.55;2.13;;;20.80;84.00;;;;;;5072280;28;20416;-55
2022/09/22 11:17:45;;;;;;;7.75;2.00;;;20.80;84.30;;;;;;5072627;28;20506;-55
2022/09/22 11:20:22;;;;;;;6.97;1.65;;;20.80;84.60;;;;;;5072396;28;20040;-55
2022/09/22 11:23:13;;;;;;;4.88;1.83;;;20.80;84.80;;;;;;5072290;28;20021;-56
2022/09/22 11:26:03;;;;;;;6.88;1.80;;;20.80;84.60;;;;;;5069950;28;20028;-54
2022/09/22 11:28:44;;;;;;;4.60;1.60;;;20.80;84.60;;;;;;5071497;28;20048;-55
2022/09/22 11:31:49;;;;;;;5.78;1.85;;;20.80;84.70;;;;;;5070487;28;20024;-55
2022/09/22 11:34:20;;;;;;;5.50;2.10;;;20.80;84.70;;;;;;5071977;28;20016;-55
2022/09/22 11:37:26;;;;;;;6.22;2.08;;;20.70;84.90;;;;;;5070503;28;20029;-54
2022/09/22 11:40:06;;;;;;;7.47;2.10;;;20.70;84.80;;;;;;5041467;28;20036;-55
2022/09/22 11:42:55;;;;;;;6.32;1.70;;;20.70;85.10;;;;;;5071339;28;20533;-55
2022/09/22 11:45:42;;;;;;;9.38;1.90;;;20.70;85.10;;;;;;5071834;28;20028;-55
2022/09/22 11:48:28;;;;;;;6.70;1.98;;;20.70;85.20;;;;;;5071506;28;20074;-55
2022/09/22 11:51:01;;;;;;;5.55;1.60;;;20.70;85.10;;;;;;5070755;28;20535;-55
2022/09/22 11:53:57;;;;;;;5.70;1.77;;;20.70;85.20;;;;;;5071623;28;20028;-55
2022/09/22 11:56:37;;;;;;;7.13;2.00;;;20.70;85.10;;;;;;5070405;28;20032;-55
2022/09/22 11:59:47;;;;;;;8.82;2.40;;;20.70;85.10;;;;;;5069705;28;20035;-55
2022/09/22 12:02:28;;;;;;;6.03;1.90;;;20.70;85.10;;;;;;5066804;28;20039;-56
2022/09/22 12:05:07;;;;;;;6.72;1.98;;;20.70;85.00;;;;;;5070676;28;20115;-55
2022/09/22 12:07:54;;;;;;;5.90;1.60;;;20.70;85.10;;;;;;5071444;28;20036;-55
2022/09/22 12:10:43;;;;;;;5.43;1.90;;;20.70;85.00;;;;;;5071693;28;20081;-56
2022/09/22 12:13:19;;;;;;;6.75;1.77;;;20.70;84.90;;;;;;5070665;28;20031;-54
2022/09/22 12:16:08;;;;;;;6.10;1.80;;;20.70;85.00;;;;;;5070922;28;20024;-54
2022/09/22 12:18:44;;;;;;;6.78;2.08;;;20.70;84.90;;;;;;5070960;28;20387;-55
2022/09/22 12:21:36;;;;;;;6.43;1.73;;;20.70;85.00;;;;;;5070759;28;20028;-55
2022/09/22 12:24:09;;;;;;;5.63;1.85;;;20.70;84.90;;;;;;5070935;28;20107;-55
2022/09/22 12:26:45;;;;;;;7.30;2.20;;;20.70;85.10;;;;;;5070974;28;20048;-56
2022/09/22 12:29:14;;;;;;;6.93;1.90;;;20.70;85.00;;;;;;5052504;28;20036;-55
2022/09/22 12:31:44;;;;;;;5.43;1.75;;;20.70;85.00;;;;;;5070488;28;20032;-55
2022/09/22 12:34:22;;;;;;;6.53;1.65;;;20.70;85.10;;;;;;5070867;28;20051;-55
2022/09/22 12:36:58;;;;;;;5.30;1.80;;;20.70;85.20;;;;;;5069398;28;20032;-55
2022/09/22 12:39:29;;;;;;;7.05;1.90;;;20.70;85.30;;;;;;5071116;28;20450;-55
2022/09/22 12:42:00;;;;;;;7.15;1.98;;;20.70;85.30;;;;;;5071145;28;20028;-55
2022/09/22 12:44:35;;;;;;;6.25;2.10;;;20.70;85.40;;;;;;5070902;28;20028;-54
2022/09/22 12:47:15;;;;;;;6.43;2.00;;;20.70;85.40;;;;;;5068843;28;20475;-55
2022/09/22 12:49:53;;;;;;;5.28;1.67;;;20.70;85.40;;;;;;5070622;28;20064;-55
2022/09/22 12:52:39;;;;;;;6.88;2.10;;;20.70;85.50;;;;;;5070630;28;20059;-56
2022/09/22 12:55:29;;;;;;;6.93;2.08;;;20.70;85.50;;;;;;5069171;28;20024;-56
2022/09/22 12:57:58;;;;;;;7.40;2.03;;;20.70;85.60;;;;;;5069040;28;20394;-54
2022/09/22 13:00:33;;;;;;;6.05;1.88;;;20.70;85.70;;;;;;5070606;28;20017;-55
2022/09/22 13:03:29;;;;;;;7.07;2.08;;;20.70;85.80;;;;;;5069021;28;20447;-55
2022/09/22 13:06:03;;;;;;;7.32;2.08;;;20.70;85.70;;;;;;5069586;28;20031;-54
2022/09/22 13:08:31;;;;;;;5.30;1.63;;;20.70;85.80;;;;;;5070207;28;20498;-55
2022/09/22 13:11:05;;;;;;;9.70;2.20;;;20.70;85.80;;;;;;5070826;28;20017;-55
2022/09/22 13:13:35;;;;;;;5.35;1.85;;;20.70;85.80;;;;;;5069781;28;20032;-56
2022/09/22 13:16:14;;;;;;;6.00;1.70;;;20.70;85.80;;;;;;5070283;28;20021;-54
2022/09/22 13:18:52;;;;;;;4.60;1.70;;;20.70;85.70;;;;;;5070315;28;20122;-55
2022/09/22 13:21:26;;;;;;;8.68;2.25;;;20.70;85.70;;;;;;5068850;28;20383;-55
2022/09/22 13:23:57;;;;;;;6.95;2.00;;;20.70;85.70;;;;;;5069129;28;20033;-54
2022/09/22 13:26:29;;;;;;;5.78;1.58;;;20.70;85.70;;;;;;5069234;28;20025;-54
2022/09/22 13:29:09;;;;;;;5.15;1.85;;;20.70;85.70;;;;;;5069977;28;20116;-54
2022/09/22 13:31:43;;;;;;;5.78;2.00;;;20.70;85.80;;;;;;5068918;28;20051;-54
2022/09/22 13:34:34;;;;;;;4.65;1.55;;;20.70;85.90;;;;;;5071990;28;20032;-55